Time;durP1;ratioP1;P1;durP2;ratioP2;P2;SDS_P1;SDS_P2;PMS_P1;PMS_P2;Temp;Humidity;BMP_temperature;BMP_pressure;BME280_temperature;BME280_humidity;BME280_pressure;Samples;Min_cycle;Max_cycle;Signal;HPM_P1;HPM_P2
2021/11/24 00:00:13;;;;;;;57.30;22.63;;;;;;;;;;4993074;28;20814;-50
2021/11/24 00:02:39;;;;;;;46.73;22.63;;;;;;;;;;4993414;28;20175;-51
2021/11/24 00:05:05;;;;;;;46.90;22.30;;;;;;;;;;4993176;28;20903;-50
2021/11/24 00:07:31;;;;;;;45.23;22.33;;;;;;;;;;4993130;28;20774;-50
2021/11/24 00:09:57;;;;;;;46.77;22.77;;;;;;;;;;4992924;28;20433;-50
2021/11/24 00:12:24;;;;;;;57.07;23.10;;;;;;;;;;4993107;28;20405;-50
2021/11/24 00:14:50;;;;;;;52.40;21.97;;;;;;;;;;4993090;28;20487;-51
2021/11/24 00:17:18;;;;;;;52.83;23.13;;;;;;;;;;4993124;28;20405;-50
2021/11/24 00:19:44;;;;;;;52.37;23.43;;;;;;;;;;4992658;28;20432;-50
2021/11/24 00:22:12;;;;;;;51.47;22.77;;;;;;;;;;4992787;28;20424;-50
2021/11/24 00:24:38;;;;;;;49.77;21.67;;;;;;;;;;4992752;28;20431;-50
2021/11/24 00:27:04;;;;;;;50.93;22.43;;;;;;;;;;4992874;28;20436;-50
2021/11/24 00:29:30;;;;;;;50.97;22.80;;;;;;;;;;4992620;28;20417;-49
2021/11/24 00:31:56;;;;;;;64.27;22.07;;;;;;;;;;4992800;28;20412;-51
2021/11/24 00:34:24;;;;;;;51.73;23.03;;;;;;;;;;4992776;28;20412;-51
2021/11/24 00:36:50;;;;;;;61.30;23.60;;;;;;;;;;4992633;28;20824;-52
2021/11/24 00:39:16;;;;;;;45.37;20.77;;;;;;;;;;4992453;28;20181;-52
2021/11/24 00:41:43;;;;;;;58.60;21.97;;;;;;;;;;4992549;28;20549;-50
2021/11/24 00:44:10;;;;;;;59.30;22.57;;;;;;;;;;4992591;28;20409;-51
2021/11/24 00:46:36;;;;;;;75.93;24.37;;;;;;;;;;4992679;28;20405;-50
2021/11/24 00:49:02;;;;;;;58.40;21.83;;;;;;;;;;4992339;28;20422;-50
2021/11/24 00:51:28;;;;;;;55.13;24.20;;;;;;;;;;4992487;28;20810;-50
2021/11/24 00:53:54;;;;;;;76.17;24.40;;;;;;;;;;4992570;28;20404;-51
2021/11/24 00:56:20;;;;;;;52.50;22.33;;;;;;;;;;4992480;28;20444;-49
2021/11/24 00:58:46;;;;;;;62.53;24.30;;;;;;;;;;4992963;28;20428;-50
2021/11/24 01:01:12;;;;;;;65.03;22.60;;;;;;;;;;4993838;28;20460;-52
2021/11/24 01:03:38;;;;;;;48.43;22.17;;;;;;;;;;4993620;28;20424;-51
2021/11/24 01:06:04;;;;;;;58.70;22.60;;;;;;;;;;4993340;28;20454;-51
2021/11/24 01:08:30;;;;;;;49.63;22.10;;;;;;;;;;4993129;28;20397;-52
2021/11/24 01:10:56;;;;;;;63.77;23.07;;;;;;;;;;4993290;28;20412;-53
2021/11/24 01:13:22;;;;;;;69.80;25.70;;;;;;;;;;4993138;28;20408;-51
2021/11/24 01:15:48;;;;;;;51.70;22.50;;;;;;;;;;4993457;28;20497;-52
2021/11/24 01:18:14;;;;;;;49.93;22.20;;;;;;;;;;4993416;28;20436;-52
2021/11/24 01:20:40;;;;;;;60.33;25.00;;;;;;;;;;4993265;28;20547;-52
2021/11/24 01:23:06;;;;;;;66.50;23.43;;;;;;;;;;4993654;28;20420;-51
2021/11/24 01:25:32;;;;;;;74.73;25.43;;;;;;;;;;4993341;28;20407;-52
2021/11/24 01:27:59;;;;;;;59.97;25.00;;;;;;;;;;4993282;28;20488;-51
2021/11/24 01:30:25;;;;;;;62.80;23.00;;;;;;;;;;4993015;28;20429;-50
2021/11/24 01:32:51;;;;;;;79.40;25.43;;;;;;;;;;4993181;28;20412;-51
2021/11/24 01:35:17;;;;;;;54.87;22.93;;;;;;;;;;4993406;28;20416;-52
2021/11/24 01:37:43;;;;;;;55.80;23.73;;;;;;;;;;4994975;28;20416;-51
2021/11/24 01:40:09;;;;;;;47.90;21.80;;;;;;;;;;4996283;28;20891;-52
2021/11/24 01:42:35;;;;;;;55.37;22.70;;;;;;;;;;4997340;28;20431;-52
2021/11/24 01:45:01;;;;;;;87.23;25.47;;;;;;;;;;4996964;28;20437;-51
2021/11/24 01:47:27;;;;;;;100.50;27.40;;;;;;;;;;4997038;28;20409;-51
2021/11/24 01:49:53;;;;;;;74.90;25.03;;;;;;;;;;4996392;28;20421;-52
2021/11/24 01:52:19;;;;;;;78.97;26.47;;;;;;;;;;4996881;28;20412;-52
2021/11/24 01:54:46;;;;;;;98.17;28.00;;;;;;;;;;4996730;28;20495;-50
2021/11/24 01:57:12;;;;;;;86.40;25.10;;;;;;;;;;4996551;28;20960;-51
2021/11/24 01:59:38;;;;;;;106.83;28.80;;;;;;;;;;4996092;28;20519;-51
2021/11/24 02:02:04;;;;;;;98.03;29.70;;;;;;;;;;4995822;28;20768;-51
2021/11/24 02:04:30;;;;;;;95.80;29.55;;;;;;;;;;4995868;28;20780;-50
2021/11/24 02:06:56;;;;;;;97.10;25.92;;;;;;;;;;4995869;28;20244;-52
2021/11/24 02:09:22;;;;;;;88.50;24.47;;;;;;;;;;4995435;28;20645;-52
2021/11/24 02:11:48;;;;;;;83.47;27.73;;;;;;;;;;4996620;28;20409;-52
2021/11/24 02:14:15;;;;;;;74.82;25.35;;;;;;;;;;4996706;28;20405;-50
2021/11/24 02:16:42;;;;;;;88.80;27.90;;;;;;;;;;4996898;28;20534;-51
2021/11/24 02:19:08;;;;;;;84.27;25.80;;;;;;;;;;4996222;28;20429;-52
2021/11/24 02:21:34;;;;;;;97.27;28.20;;;;;;;;;;4996119;28;20455;-50
2021/11/24 02:24:00;;;;;;;97.37;27.57;;;;;;;;;;4996598;28;20396;-51
2021/11/24 02:26:26;;;;;;;84.37;26.40;;;;;;;;;;4996447;28;20943;-51
2021/11/24 02:28:53;;;;;;;93.43;25.77;;;;;;;;;;4996151;28;20435;-51
2021/11/24 02:31:19;;;;;;;80.17;25.37;;;;;;;;;;4996694;28;20757;-50
2021/11/24 02:33:50;;;;;;;84.85;26.50;;;;;;;;;;4996287;28;20416;-50
2021/11/24 02:36:16;;;;;;;82.60;26.93;;;;;;;;;;4996191;28;20250;-50
2021/11/24 02:38:42;;;;;;;90.43;25.67;;;;;;;;;;4996166;28;20402;-51
2021/11/24 02:41:08;;;;;;;87.43;27.13;;;;;;;;;;4996346;28;20449;-49
2021/11/24 02:43:34;;;;;;;82.03;25.77;;;;;;;;;;4996430;28;20737;-50
2021/11/24 02:46:00;;;;;;;105.57;26.77;;;;;;;;;;4996129;28;20582;-50
2021/11/24 02:48:26;;;;;;;75.17;24.67;;;;;;;;;;4994831;28;20423;-50
2021/11/24 02:50:54;;;;;;;71.07;23.90;;;;;;;;;;4996388;28;20420;-50
2021/11/24 02:53:26;;;;;;;82.57;25.80;;;;;;;;;;4995952;28;20482;-51
2021/11/24 02:55:53;;;;;;;79.80;24.57;;;;;;;;;;4996021;28;20638;-52
2021/11/24 02:58:19;;;;;;;72.50;24.20;;;;;;;;;;4995847;28;20409;-50
2021/11/24 03:00:45;;;;;;;76.83;24.90;;;;;;;;;;4995635;28;20827;-52
2021/11/24 03:03:11;;;;;;;100.90;27.13;;;;;;;;;;4995712;28;20405;-52
2021/11/24 03:05:37;;;;;;;90.47;26.03;;;;;;;;;;4995567;28;20459;-52
2021/11/24 03:08:04;;;;;;;86.43;24.30;;;;;;;;;;4995086;28;20480;-53
2021/11/24 03:10:30;;;;;;;88.10;25.60;;;;;;;;;;4995489;28;20480;-52
2021/11/24 03:12:57;;;;;;;111.93;27.63;;;;;;;;;;4995247;28;20776;-50
2021/11/24 03:15:23;;;;;;;113.83;27.10;;;;;;;;;;4995522;28;20419;-50
2021/11/24 03:17:49;;;;;;;89.37;26.63;;;;;;;;;;4995718;28;20408;-52
2021/11/24 03:20:15;;;;;;;107.20;26.80;;;;;;;;;;4994921;28;20499;-52
2021/11/24 03:22:41;;;;;;;89.20;26.40;;;;;;;;;;4994778;28;20904;-50
2021/11/24 03:25:08;;;;;;;129.83;25.77;;;;;;;;;;4995223;28;20491;-50
2021/11/24 03:27:35;;;;;;;108.67;28.30;;;;;;;;;;4995223;28;20499;-51
2021/11/24 03:30:03;;;;;;;113.83;29.37;;;;;;;;;;4994769;28;20444;-50
2021/11/24 03:32:29;;;;;;;106.37;27.53;;;;;;;;;;4995016;28;20547;-52
2021/11/24 03:34:55;;;;;;;108.33;29.10;;;;;;;;;;4994866;28;20901;-52
2021/11/24 03:37:22;;;;;;;91.30;27.00;;;;;;;;;;4994808;28;20408;-52
2021/11/24 03:39:49;;;;;;;126.77;26.00;;;;;;;;;;4994775;28;20435;-53
2021/11/24 03:42:16;;;;;;;92.00;23.83;;;;;;;;;;4994818;28;20420;-52
2021/11/24 03:44:43;;;;;;;93.37;27.10;;;;;;;;;;4995231;28;20485;-50
2021/11/24 03:47:09;;;;;;;107.13;24.87;;;;;;;;;;4994729;28;20400;-51
2021/11/24 03:49:35;;;;;;;93.30;25.93;;;;;;;;;;4994636;28;20468;-52
2021/11/24 03:52:01;;;;;;;114.33;26.50;;;;;;;;;;4994837;28;20886;-51
2021/11/24 03:54:27;;;;;;;100.50;26.77;;;;;;;;;;4994598;28;20409;-51
2021/11/24 03:56:53;;;;;;;95.07;24.80;;;;;;;;;;4994628;28;20412;-50
2021/11/24 03:59:19;;;;;;;119.40;29.53;;;;;;;;;;4994256;28;20420;-50
2021/11/24 04:01:45;;;;;;;91.63;25.70;;;;;;;;;;4994570;28;20973;-49
2021/11/24 04:04:11;;;;;;;101.13;24.67;;;;;;;;;;4994562;28;20409;-52
2021/11/24 04:06:37;;;;;;;71.40;23.70;;;;;;;;;;4994466;28;20787;-52
2021/11/24 04:09:03;;;;;;;121.60;27.77;;;;;;;;;;4994442;28;20426;-52
2021/11/24 04:11:29;;;;;;;115.97;27.20;;;;;;;;;;4994493;28;20405;-52
2021/11/24 04:13:55;;;;;;;98.37;25.67;;;;;;;;;;4994267;28;20911;-52
2021/11/24 04:16:21;;;;;;;116.27;27.87;;;;;;;;;;4994064;28;20410;-52
2021/11/24 04:18:48;;;;;;;128.27;27.77;;;;;;;;;;4993842;28;20922;-52
2021/11/24 04:21:14;;;;;;;117.83;26.17;;;;;;;;;;4993651;28;20460;-51
2021/11/24 04:23:40;;;;;;;106.17;28.80;;;;;;;;;;4993924;28;20415;-52
2021/11/24 04:26:06;;;;;;;99.50;24.80;;;;;;;;;;4993942;28;20778;-52
2021/11/24 04:28:32;;;;;;;115.87;26.10;;;;;;;;;;4993675;28;20409;-52
2021/11/24 04:30:58;;;;;;;91.67;25.27;;;;;;;;;;4993896;28;20418;-51
2021/11/24 04:33:24;;;;;;;128.13;26.80;;;;;;;;;;4993995;28;20448;-52
2021/11/24 04:35:50;;;;;;;147.87;25.70;;;;;;;;;;4993819;28;20443;-53
2021/11/24 04:38:16;;;;;;;144.33;29.63;;;;;;;;;;4993761;28;20414;-50
2021/11/24 04:40:42;;;;;;;111.53;26.73;;;;;;;;;;4993644;28;20452;-52
2021/11/24 04:46:08;;;;;;;114.40;26.17;;;;;;;;;;5498090;23;20505;-52
2021/11/24 04:48:36;;;;;;;123.70;25.53;;;;;;;;;;5053678;28;20428;-50
2021/11/24 04:51:02;;;;;;;114.63;24.83;;;;;;;;;;5054598;28;20506;-50
2021/11/24 04:53:28;;;;;;;107.90;23.83;;;;;;;;;;5054630;28;20425;-52
2021/11/24 04:55:55;;;;;;;120.93;27.60;;;;;;;;;;5039034;28;20450;-52
2021/11/24 04:58:20;;;;;;;104.00;26.57;;;;;;;;;;5033701;28;20766;-52
2021/11/24 05:00:46;;;;;;;112.57;27.20;;;;;;;;;;5032839;28;20455;-49
2021/11/24 05:03:12;;;;;;;125.77;27.40;;;;;;;;;;5031752;28;20484;-49
2021/11/24 05:05:38;;;;;;;114.47;25.97;;;;;;;;;;5030989;28;20939;-49
2021/11/24 05:08:05;;;;;;;123.57;27.57;;;;;;;;;;5031682;28;20509;-51
2021/11/24 05:10:31;;;;;;;153.10;26.80;;;;;;;;;;5032094;28;20430;-48
2021/11/24 05:12:57;;;;;;;97.93;27.10;;;;;;;;;;5034150;28;20500;-49
2021/11/24 05:15:30;;;;;;;80.77;23.03;;;;;;;;;;5034553;28;20427;-49
2021/11/24 05:17:58;;;;;;;74.30;22.57;;;;;;;;;;5035881;28;20401;-48
2021/11/24 05:20:25;;;;;;;89.67;23.70;;;;;;;;;;5035637;28;20497;-48
2021/11/24 05:22:53;;;;;;;93.30;23.70;;;;;;;;;;5035617;28;20895;-48
2021/11/24 05:25:19;;;;;;;92.93;24.47;;;;;;;;;;5034849;28;20447;-51
2021/11/24 05:27:45;;;;;;;95.67;22.90;;;;;;;;;;5035760;28;20407;-49
2021/11/24 05:30:12;;;;;;;113.87;25.73;;;;;;;;;;5035523;28;20830;-48
2021/11/24 05:32:38;;;;;;;105.93;25.00;;;;;;;;;;5035558;28;20413;-49
2021/11/24 05:35:04;;;;;;;92.23;24.17;;;;;;;;;;5034601;28;20430;-49
2021/11/24 05:37:30;;;;;;;97.63;23.90;;;;;;;;;;5035323;28;20447;-49
2021/11/24 05:39:56;;;;;;;98.93;25.03;;;;;;;;;;5035185;28;20442;-49
2021/11/24 05:42:24;;;;;;;174.40;27.43;;;;;;;;;;5035349;28;20403;-50
2021/11/24 05:45:00;;;;;;;131.27;24.87;;;;;;;;;;5034394;28;20430;-49
2021/11/24 05:50:10;;;;;;;79.27;25.00;;;;;;;;;;5035157;28;20940;-49
2021/11/24 05:52:36;;;;;;;111.50;25.83;;;;;;;;;;5035218;28;20401;-49
2021/11/24 05:55:03;;;;;;;104.20;23.20;;;;;;;;;;5034247;28;20799;-49
2021/11/24 05:57:29;;;;;;;109.63;26.70;;;;;;;;;;5035029;28;20403;-49
2021/11/24 05:59:54;;;;;;;152.80;29.70;;;;;;;;;;5034890;28;20410;-49
2021/11/24 06:02:20;;;;;;;84.13;25.10;;;;;;;;;;5034847;28;20400;-49
2021/11/24 06:04:46;;;;;;;111.60;28.40;;;;;;;;;;5034103;28;20513;-49
2021/11/24 06:07:12;;;;;;;94.93;25.03;;;;;;;;;;5034807;28;20400;-49
2021/11/24 06:09:38;;;;;;;84.27;27.37;;;;;;;;;;5017084;28;20414;-49
2021/11/24 06:12:05;;;;;;;126.27;24.80;;;;;;;;;;5034896;28;20416;-49
2021/11/24 06:14:31;;;;;;;91.90;23.13;;;;;;;;;;5033930;28;20443;-49
2021/11/24 06:16:58;;;;;;;93.17;23.50;;;;;;;;;;5034582;28;20447;-49
2021/11/24 06:19:24;;;;;;;83.50;23.93;;;;;;;;;;5034660;28;20404;-49
2021/11/24 06:21:50;;;;;;;90.27;24.50;;;;;;;;;;5034442;28;20455;-48
2021/11/24 06:24:16;;;;;;;76.83;23.30;;;;;;;;;;5033797;28;20404;-51
2021/11/24 06:26:42;;;;;;;90.90;22.83;;;;;;;;;;5034179;28;20391;-51
2021/11/24 06:29:08;;;;;;;74.57;22.57;;;;;;;;;;5034456;28;20891;-49
2021/11/24 06:31:35;;;;;;;79.10;24.50;;;;;;;;;;5034288;28;20399;-49
2021/11/24 06:34:01;;;;;;;62.53;23.37;;;;;;;;;;5034296;28;20456;-50
2021/11/24 06:36:27;;;;;;;70.97;21.23;;;;;;;;;;5033548;28;20423;-49
2021/11/24 06:38:54;;;;;;;89.30;23.70;;;;;;;;;;5034394;28;20438;-49
2021/11/24 06:41:20;;;;;;;86.37;23.10;;;;;;;;;;5034124;28;20899;-49
2021/11/24 06:43:46;;;;;;;166.17;27.67;;;;;;;;;;5034135;28;20399;-49
2021/11/24 06:46:12;;;;;;;76.73;25.70;;;;;;;;;;5033260;28;20502;-49
2021/11/24 06:48:38;;;;;;;83.13;25.60;;;;;;;;;;5034018;28;20517;-49
2021/11/24 06:51:04;;;;;;;87.73;25.67;;;;;;;;;;5034035;28;20413;-49
2021/11/24 06:53:30;;;;;;;116.10;25.03;;;;;;;;;;5033992;28;20404;-49
2021/11/24 06:55:56;;;;;;;82.87;26.03;;;;;;;;;;5033215;28;20912;-49
2021/11/24 06:58:22;;;;;;;77.97;24.30;;;;;;;;;;5033923;28;20404;-48
2021/11/24 07:00:48;;;;;;;84.70;25.47;;;;;;;;;;5033666;28;20480;-48
2021/11/24 07:03:14;;;;;;;94.43;25.70;;;;;;;;;;5033785;28;20396;-49
2021/11/24 07:05:40;;;;;;;102.03;26.50;;;;;;;;;;5033341;28;20437;-49
2021/11/24 07:08:06;;;;;;;93.13;25.87;;;;;;;;;;5033737;28;20408;-49
2021/11/24 07:10:33;;;;;;;102.97;27.50;;;;;;;;;;5033683;28;20413;-49
2021/11/24 07:12:59;;;;;;;103.10;26.87;;;;;;;;;;5033502;28;20932;-49
2021/11/24 07:15:26;;;;;;;74.53;25.97;;;;;;;;;;5032796;28;20489;-49
2021/11/24 07:17:53;;;;;;;95.17;25.40;;;;;;;;;;5033535;28;20948;-49
2021/11/24 07:20:18;;;;;;;94.37;28.10;;;;;;;;;;5033422;28;20459;-49
2021/11/24 07:22:44;;;;;;;103.33;28.33;;;;;;;;;;5033397;28;20406;-49
2021/11/24 07:25:11;;;;;;;106.17;28.27;;;;;;;;;;5032651;28;20425;-51
2021/11/24 07:27:38;;;;;;;116.37;31.67;;;;;;;;;;5033690;28;20410;-49
2021/11/24 07:30:05;;;;;;;143.53;29.80;;;;;;;;;;5033257;28;20399;-49
2021/11/24 07:32:31;;;;;;;106.43;26.97;;;;;;;;;;5033181;28;20404;-49
2021/11/24 07:34:57;;;;;;;175.80;26.87;;;;;;;;;;5031781;28;20428;-48
2021/11/24 07:37:23;;;;;;;111.27;27.67;;;;;;;;;;5033132;28;20428;-49
2021/11/24 07:39:49;;;;;;;101.40;27.40;;;;;;;;;;5033149;28;20407;-49
2021/11/24 07:42:15;;;;;;;143.03;29.53;;;;;;;;;;5032962;28;20776;-49
2021/11/24 07:44:41;;;;;;;103.30;26.50;;;;;;;;;;5032249;28;20987;-48
2021/11/24 07:47:07;;;;;;;88.40;27.80;;;;;;;;;;5032971;28;20408;-49
2021/11/24 07:49:33;;;;;;;95.33;24.50;;;;;;;;;;5033159;28;20786;-49
2021/11/24 07:51:59;;;;;;;98.07;24.53;;;;;;;;;;5032850;28;20402;-49
2021/11/24 07:54:25;;;;;;;91.90;23.73;;;;;;;;;;5032080;28;20918;-49
2021/11/24 07:56:51;;;;;;;86.23;24.77;;;;;;;;;;5032682;28;20528;-49
2021/11/24 07:59:17;;;;;;;109.53;25.43;;;;;;;;;;5032750;28;20446;-49
2021/11/24 08:01:44;;;;;;;147.80;27.90;;;;;;;;;;5032892;28;20455;-50
2021/11/24 08:04:10;;;;;;;111.60;24.73;;;;;;;;;;5032556;28;20403;-48
2021/11/24 08:06:36;;;;;;;192.37;27.90;;;;;;;;;;5031837;28;20452;-49
2021/11/24 08:09:02;;;;;;;126.57;25.40;;;;;;;;;;5025391;28;20788;-49
2021/11/24 08:11:28;;;;;;;92.03;26.77;;;;;;;;;;5032300;28;20410;-49
2021/11/24 08:13:54;;;;;;;80.27;24.93;;;;;;;;;;5032407;28;20902;-49
2021/11/24 08:18:56;;;;;;;73.33;24.20;;;;;;;;;;5473903;23;20505;-49
2021/11/24 08:21:22;;;;;;;65.53;21.40;;;;;;;;;;5011524;28;20847;-48
2021/11/24 08:23:48;;;;;;;50.57;20.10;;;;;;;;;;5012359;28;20432;-49
2021/11/24 08:26:14;;;;;;;69.03;24.37;;;;;;;;;;5012604;28;20404;-48
2021/11/24 08:28:40;;;;;;;102.40;21.20;;;;;;;;;;5011850;28;20424;-48
2021/11/24 08:31:06;;;;;;;92.83;22.40;;;;;;;;;;5012384;28;20492;-47
2021/11/24 08:33:36;;;;;;;69.80;22.33;;;;;;;;;;5012663;28;20432;-52
2021/11/24 08:36:02;;;;;;;53.33;20.27;;;;;;;;;;5012456;28;20440;-50
2021/11/24 08:38:28;;;;;;;64.37;20.37;;;;;;;;;;5011614;28;20427;-50
2021/11/24 08:40:54;;;;;;;59.93;19.70;;;;;;;;;;5012292;28;20453;-52
2021/11/24 08:43:20;;;;;;;56.53;20.67;;;;;;;;;;5012263;28;20405;-50
2021/11/24 08:45:46;;;;;;;77.13;22.73;;;;;;;;;;5012067;28;20470;-50
2021/11/24 08:48:12;;;;;;;69.03;22.83;;;;;;;;;;5010959;28;20436;-50
2021/11/24 08:50:38;;;;;;;63.27;20.80;;;;;;;;;;5012212;28;20470;-51
2021/11/24 08:53:04;;;;;;;53.87;19.83;;;;;;;;;;4994611;28;20838;-51
2021/11/24 08:55:31;;;;;;;50.03;20.30;;;;;;;;;;5012176;28;20418;-51
2021/11/24 08:57:57;;;;;;;52.93;19.90;;;;;;;;;;5011422;28;20429;-52
2021/11/24 09:00:23;;;;;;;47.17;19.30;;;;;;;;;;5011932;28;20534;-52
2021/11/24 09:02:50;;;;;;;48.33;19.87;;;;;;;;;;5011998;28;20437;-50
2021/11/24 09:05:17;;;;;;;52.30;19.17;;;;;;;;;;5011921;28;20430;-52
2021/11/24 09:07:43;;;;;;;48.60;19.93;;;;;;;;;;5011305;28;21301;-52
2021/11/24 09:10:10;;;;;;;58.77;20.93;;;;;;;;;;5011927;28;20408;-51
2021/11/24 09:12:36;;;;;;;49.97;21.30;;;;;;;;;;5011862;28;20410;-50
2021/11/24 09:15:03;;;;;;;54.53;19.83;;;;;;;;;;5011895;28;20415;-50
2021/11/24 09:17:29;;;;;;;54.80;19.83;;;;;;;;;;5011068;28;20850;-52
2021/11/24 09:19:55;;;;;;;56.23;21.77;;;;;;;;;;5011785;28;20405;-51
2021/11/24 09:22:21;;;;;;;45.57;18.97;;;;;;;;;;5011825;28;20433;-50
2021/11/24 09:24:48;;;;;;;44.17;19.10;;;;;;;;;;5011654;28;20459;-51
2021/11/24 09:27:18;;;;;;;43.37;18.90;;;;;;;;;;5011607;28;20400;-51
2021/11/24 09:29:47;;;;;;;41.67;18.03;;;;;;;;;;5011075;28;20473;-51
2021/11/24 09:32:13;;;;;;;53.40;21.37;;;;;;;;;;5011786;28;20438;-52
2021/11/24 09:34:39;;;;;;;47.17;19.13;;;;;;;;;;5011634;28;20427;-51
2021/11/24 09:37:05;;;;;;;48.00;20.00;;;;;;;;;;5011786;28;20404;-52
2021/11/24 09:39:31;;;;;;;43.87;19.97;;;;;;;;;;5011066;28;20431;-50
2021/11/24 09:42:03;;;;;;;44.47;20.90;;;;;;;;;;5009073;28;20481;-51
2021/11/24 09:44:29;;;;;;;40.03;17.30;;;;;;;;;;5011522;28;20461;-51
2021/11/24 09:46:57;;;;;;;42.83;17.00;;;;;;;;;;5011574;28;20407;-51
2021/11/24 09:49:23;;;;;;;38.83;17.90;;;;;;;;;;5010929;28;20484;-51
2021/11/24 09:51:49;;;;;;;38.83;19.67;;;;;;;;;;5011584;28;20417;-51
2021/11/24 09:54:16;;;;;;;38.10;18.07;;;;;;;;;;5010719;28;20411;-50
2021/11/24 09:56:42;;;;;;;40.20;19.67;;;;;;;;;;5009626;28;20461;-50
2021/11/24 09:59:09;;;;;;;48.90;20.43;;;;;;;;;;5012342;28;20438;-51
2021/11/24 10:01:37;;;;;;;44.33;19.90;;;;;;;;;;5014204;28;20539;-51
2021/11/24 10:04:04;;;;;;;41.20;18.10;;;;;;;;;;5014756;28;20484;-51
2021/11/24 10:06:30;;;;;;;43.20;17.90;;;;;;;;;;5015172;28;20400;-51
2021/11/24 10:08:57;;;;;;;38.30;18.63;;;;;;;;;;5014187;28;20415;-50
2021/11/24 10:11:23;;;;;;;43.77;19.67;;;;;;;;;;5015037;28;20403;-49
2021/11/24 10:13:50;;;;;;;47.20;19.20;;;;;;;;;;5014978;28;20411;-50
2021/11/24 10:16:29;;;;;;;43.63;19.27;;;;;;;;;;5014911;28;20470;-52
2021/11/24 10:18:56;;;;;;;38.70;17.53;;;;;;;;;;5014146;28;20437;-52
2021/11/24 10:21:22;;;;;;;42.10;19.30;;;;;;;;;;5014541;28;20490;-51
2021/11/24 10:23:49;;;;;;;35.27;17.23;;;;;;;;;;5014773;28;20435;-51
2021/11/24 10:26:20;;;;;;;40.03;17.33;;;;;;;;;;5014735;28;20488;-51
2021/11/24 10:28:51;;;;;;;38.17;17.10;;;;;;;;;;5014016;28;20470;-52
2021/11/24 10:31:24;;;;;;;36.80;17.17;;;;;;;;;;5014567;28;20399;-52
2021/11/24 10:33:50;;;;;;;34.47;17.10;;;;;;;;;;5014545;28;20773;-51
2021/11/24 10:36:16;;;;;;;39.17;18.80;;;;;;;;;;5014715;28;20416;-51
2021/11/24 10:38:43;;;;;;;35.80;17.93;;;;;;;;;;5013805;28;20477;-52
2021/11/24 10:41:11;;;;;;;37.83;16.90;;;;;;;;;;5014844;28;20862;-51
2021/11/24 10:43:41;;;;;;;33.97;17.43;;;;;;;;;;5014384;28;20396;-50
2021/11/24 10:46:08;;;;;;;30.53;16.03;;;;;;;;;;5014432;28;20392;-51
2021/11/24 10:48:34;;;;;;;34.63;16.77;;;;;;;;;;5013380;28;20782;-51
2021/11/24 10:51:02;;;;;;;32.80;17.37;;;;;;;;;;5014346;28;20405;-52
2021/11/24 10:53:28;;;;;;;36.33;18.27;;;;;;;;;;5013886;28;20399;-52
2021/11/24 10:55:54;;;;;;;36.60;18.33;;;;;;;;;;5014285;28;20438;-51
2021/11/24 10:58:26;;;;;;;40.93;17.30;;;;;;;;;;5013470;28;20434;-52
2021/11/24 11:00:56;;;;;;;25.63;12.87;;;;;;;;;;5014056;28;20587;-51
2021/11/24 11:03:32;;;;;;;26.17;13.47;;;;;;;;;;5013897;28;20409;-52
2021/11/24 11:05:58;;;;;;;26.13;15.70;;;;;;;;;;5014340;28;20400;-52
2021/11/24 11:08:24;;;;;;;27.87;14.90;;;;;;;;;;5013307;28;20926;-51
2021/11/24 11:10:52;;;;;;;32.60;15.03;;;;;;;;;;5012854;28;20407;-51
2021/11/24 11:13:20;;;;;;;34.97;14.47;;;;;;;;;;5013879;28;20408;-51
2021/11/24 11:15:46;;;;;;;28.37;14.97;;;;;;;;;;5013796;28;20462;-52
2021/11/24 11:18:28;;;;;;;30.57;13.47;;;;;;;;;;5013089;28;20827;-52
2021/11/24 11:20:59;;;;;;;24.70;12.47;;;;;;;;;;5013558;28;20961;-52
2021/11/24 11:23:26;;;;;;;25.40;12.53;;;;;;;;;;5013659;28;20880;-52
2021/11/24 11:25:52;;;;;;;24.07;12.50;;;;;;;;;;5013654;28;20382;-52
2021/11/24 11:28:19;;;;;;;23.40;12.73;;;;;;;;;;5012867;28;20834;-52
2021/11/24 11:30:46;;;;;;;22.67;12.03;;;;;;;;;;5013647;28;20450;-51
2021/11/24 11:33:13;;;;;;;21.90;11.40;;;;;;;;;;5013475;28;20595;-50
2021/11/24 11:35:40;;;;;;;24.47;13.10;;;;;;;;;;5013560;28;20404;-52
2021/11/24 11:38:08;;;;;;;23.70;12.13;;;;;;;;;;5013276;28;20551;-52
2021/11/24 11:40:39;;;;;;;21.30;11.10;;;;;;;;;;5013199;28;20452;-52
2021/11/24 11:43:07;;;;;;;13.00;7.50;;;;;;;;;;5013207;28;20454;-52
2021/11/24 11:45:33;;;;;;;9.10;6.30;;;;;;;;;;5013402;28;20399;-51
2021/11/24 11:48:01;;;;;;;8.87;5.80;;;;;;;;;;5012610;28;20432;-51
2021/11/24 11:50:39;;;;;;;10.10;6.53;;;;;;;;;;5013314;28;20781;-51
2021/11/24 11:53:18;;;;;;;12.50;6.23;;;;;;;;;;5013102;28;20409;-51
2021/11/24 11:55:44;;;;;;;15.87;6.70;;;;;;;;;;5013174;28;20407;-52
2021/11/24 11:58:20;;;;;;;7.90;5.57;;;;;;;;;;5012320;28;20502;-52
2021/11/24 12:01:03;;;;;;;9.90;6.00;;;;;;;;;;5013008;28;20450;-52
2021/11/24 12:03:47;;;;;;;7.07;4.90;;;;;;;;;;5012955;28;20408;-52
2021/11/24 12:06:19;;;;;;;4.10;3.40;;;;;;;;;;5010765;28;20410;-51
2021/11/24 12:09:03;;;;;;;4.40;3.70;;;;;;;;;;5012168;28;20514;-52
2021/11/24 12:11:49;;;;;;;4.93;3.30;;;;;;;;;;5012832;28;20763;-52
2021/11/24 12:14:34;;;;;;;5.33;4.10;;;;;;;;;;5012583;28;20771;-52
2021/11/24 12:17:00;;;;;;;4.83;4.03;;;;;;;;;;5012758;28;20399;-52
2021/11/24 12:19:34;;;;;;;5.93;4.17;;;;;;;;;;5011981;28;20423;-52
2021/11/24 12:22:00;;;;;;;9.43;4.87;;;;;;;;;;5012327;28;20454;-51
2021/11/24 12:24:39;;;;;;;6.77;4.13;;;;;;;;;;5012426;28;20400;-51
2021/11/24 12:27:05;;;;;;;5.30;3.40;;;;;;;;;;5012541;28;20399;-52
2021/11/24 12:29:51;;;;;;;5.37;4.20;;;;;;;;;;5011823;28;20420;-52
2021/11/24 12:32:18;;;;;;;4.90;4.37;;;;;;;;;;5012458;28;20413;-51
2021/11/24 12:34:51;;;;;;;5.20;3.57;;;;;;;;;;5012222;28;20403;-51
2021/11/24 12:37:23;;;;;;;5.43;3.27;;;;;;;;;;5012407;28;20475;-51
2021/11/24 12:39:50;;;;;;;2.33;2.13;;;;;;;;;;5012187;28;20427;-50
2021/11/24 12:42:16;;;;;;;3.80;2.03;;;;;;;;;;5012261;28;20464;-51
2021/11/24 12:44:50;;;;;;;3.73;2.30;;;;;;;;;;5012262;28;20890;-51
2021/11/24 12:47:15;;;;;;;3.47;2.77;;;;;;;;;;5012149;28;20399;-50
2021/11/24 12:49:41;;;;;;;4.50;2.47;;;;;;;;;;5011535;28;20423;-50
2021/11/24 12:52:07;;;;;;;2.10;1.70;;;;;;;;;;5011824;28;20399;-50
2021/11/24 12:54:33;;;;;;;1.70;1.60;;;;;;;;;;5005409;28;20483;-49
2021/11/24 12:57:06;;;;;;;1.90;1.70;;;;;;;;;;5012455;28;20391;-50
2021/11/24 12:59:36;;;;;;;1.93;1.70;;;;;;;;;;5010840;28;20422;-51
2021/11/24 13:02:07;;;;;;;2.17;1.97;;;;;;;;;;5010725;28;20451;-49
2021/11/24 13:04:36;;;;;;;3.80;1.90;;;;;;;;;;5010283;28;20468;-51
2021/11/24 13:07:02;;;;;;;3.10;1.77;;;;;;;;;;5012028;28;20407;-51
2021/11/24 13:09:30;;;;;;;2.93;1.83;;;;;;;;;;5010896;28;20547;-49
2021/11/24 13:12:00;;;;;;;2.50;1.70;;;;;;;;;;5011998;28;20764;-52
2021/11/24 13:14:31;;;;;;;7.40;2.27;;;;;;;;;;5011714;28;20433;-52
2021/11/24 13:17:08;;;;;;;2.03;1.87;;;;;;;;;;5012051;28;20406;-50
2021/11/24 13:19:52;;;;;;;2.07;1.87;;;;;;;;;;5010908;28;20426;-49
2021/11/24 13:22:29;;;;;;;2.87;1.47;;;;;;;;;;5011827;28;20490;-49
2021/11/24 13:25:00;;;;;;;2.50;1.60;;;;;;;;;;5011850;28;20866;-49
2021/11/24 13:27:48;;;;;;;1.93;1.83;;;;;;;;;;5011254;28;20399;-52
2021/11/24 13:30:16;;;;;;;1.90;1.80;;;;;;;;;;4999361;28;20410;-49
2021/11/24 13:33:01;;;;;;;2.60;1.50;;;;;;;;;;5012208;28;20402;-49
2021/11/24 13:35:27;;;;;;;1.60;1.50;;;;;;;;;;5015778;28;20399;-49
2021/11/24 13:37:53;;;;;;;2.63;1.90;;;;;;;;;;5014981;28;20425;-49
2021/11/24 13:40:37;;;;;;;2.13;1.93;;;;;;;;;;5015540;28;20457;-49
2021/11/24 13:43:04;;;;;;;1.30;1.20;;;;;;;;;;5015993;28;20437;-49
2021/11/24 13:45:31;;;;;;;1.63;1.53;;;;;;;;;;5015525;28;20918;-49
2021/11/24 13:48:19;;;;;;;1.73;1.33;;;;;;;;;;5014848;28;20437;-49
2021/11/24 13:50:54;;;;;;;1.43;1.30;;;;;;;;;;5015501;28;20395;-48
2021/11/24 13:53:21;;;;;;;1.70;1.60;;;;;;;;;;5015489;28;20406;-49
2021/11/24 13:55:47;;;;;;;1.60;1.50;;;;;;;;;;5015343;28;20402;-49
2021/11/24 13:58:13;;;;;;;2.23;2.00;;;;;;;;;;5014585;28;20442;-52
2021/11/24 14:00:39;;;;;;;3.00;1.97;;;;;;;;;;5015245;28;20592;-48
2021/11/24 14:03:05;;;;;;;1.87;1.53;;;;;;;;;;5015271;28;20775;-50
2021/11/24 14:05:35;;;;;;;2.17;1.80;;;;;;;;;;5015233;28;20402;-48
2021/11/24 14:08:01;;;;;;;3.17;2.60;;;;;;;;;;5014485;28;20440;-49
2021/11/24 14:10:29;;;;;;;2.37;2.10;;;;;;;;;;5015093;28;20954;-48
2021/11/24 14:12:57;;;;;;;2.37;2.17;;;;;;;;;;5015263;28;20502;-49
2021/11/24 14:15:24;;;;;;;2.90;2.10;;;;;;;;;;5015082;28;20438;-49
2021/11/24 14:17:53;;;;;;;2.73;2.53;;;;;;;;;;5014266;28;20944;-49
2021/11/24 14:20:19;;;;;;;2.20;1.90;;;;;;;;;;5015021;28;20508;-49
2021/11/24 14:22:54;;;;;;;2.80;2.10;;;;;;;;;;5014934;28;20415;-50
2021/11/24 14:25:28;;;;;;;4.00;2.30;;;;;;;;;;5014794;28;20403;-50
2021/11/24 14:27:54;;;;;;;2.40;2.20;;;;;;;;;;5014104;28;20454;-49